createdAt,value
2023-07-29T00:00:04.951Z,19.9
2023-07-29T00:01:21.255Z,19.9
2023-07-29T00:02:37.542Z,19.8
2023-07-29T00:03:53.826Z,19.8
2023-07-29T00:05:10.125Z,19.9
2023-07-29T00:06:26.421Z,19.9
2023-07-29T00:07:42.689Z,19.8
2023-07-29T00:08:58.013Z,19.9
2023-07-29T00:10:14.303Z,19.9
2023-07-29T00:11:30.610Z,19.9
2023-07-29T00:12:46.903Z,19.9
2023-07-29T00:14:03.182Z,19.9
2023-07-29T00:15:19.471Z,19.9
2023-07-29T00:16:35.765Z,19.9
2023-07-29T00:17:52.046Z,19.9
2023-07-29T00:19:08.363Z,19.9
2023-07-29T00:20:24.657Z,19.8
2023-07-29T00:21:40.948Z,19.8
2023-07-29T00:22:57.249Z,19.8
2023-07-29T00:24:13.524Z,19.9
2023-07-29T00:25:29.941Z,19.9
2023-07-29T00:26:46.244Z,19.9
2023-07-29T00:28:02.531Z,19.8
2023-07-29T00:29:18.818Z,19.8
2023-07-29T00:30:35.125Z,19.8
2023-07-29T00:31:51.403Z,19.7
2023-07-29T00:33:07.715Z,19.8
2023-07-29T00:34:24.003Z,19.8
2023-07-29T00:35:40.274Z,19.8
2023-07-29T00:36:56.575Z,19.7
2023-07-29T00:38:12.875Z,19.7
2023-07-29T00:39:29.165Z,19.7
2023-07-29T00:40:45.459Z,19.7
2023-07-29T00:42:00.772Z,19.6
2023-07-29T00:43:17.062Z,19.6
2023-07-29T00:44:33.365Z,19.6
2023-07-29T00:45:49.624Z,19.6
2023-07-29T00:47:05.944Z,19.5
2023-07-29T00:48:22.242Z,19.5
2023-07-29T00:49:38.517Z,19.5
2023-07-29T00:50:54.820Z,19.5
2023-07-29T00:52:11.110Z,19.5
2023-07-29T00:53:27.406Z,19.5
2023-07-29T00:54:43.695Z,19.5
2023-07-29T00:55:59.996Z,19.5
2023-07-29T00:57:16.285Z,19.5
2023-07-29T00:58:32.581Z,19.5
2023-07-29T00:59:47.891Z,19.6
2023-07-29T01:01:04.179Z,19.6
2023-07-29T01:02:20.480Z,19.6
2023-07-29T01:03:36.772Z,19.6
2023-07-29T01:04:53.059Z,19.6
2023-07-29T01:06:09.346Z,19.6
2023-07-29T01:07:25.641Z,19.6
2023-07-29T01:08:41.918Z,19.6
2023-07-29T01:09:58.224Z,19.6
2023-07-29T01:11:14.515Z,19.7
2023-07-29T01:12:30.805Z,19.7
2023-07-29T01:13:47.097Z,19.7
2023-07-29T01:15:03.388Z,19.7
2023-07-29T01:16:19.814Z,19.7
2023-07-29T01:17:36.097Z,19.7
2023-07-29T01:18:52.399Z,19.7
2023-07-29T01:20:08.699Z,19.7
2023-07-29T01:21:24.967Z,19.7
2023-07-29T01:22:41.271Z,19.7
2023-07-29T01:23:57.562Z,19.7
2023-07-29T01:25:13.869Z,19.7
2023-07-29T01:26:30.162Z,19.7
2023-07-29T01:27:46.442Z,19.7
2023-07-29T01:29:02.730Z,19.7
2023-07-29T01:30:19.028Z,19.7
2023-07-29T01:31:35.329Z,19.7
2023-07-29T01:32:50.639Z,19.7
2023-07-29T01:34:06.909Z,19.7
2023-07-29T01:35:23.230Z,19.7
2023-07-29T01:36:39.499Z,19.7
2023-07-29T01:37:55.798Z,19.7
2023-07-29T01:39:12.090Z,19.7
2023-07-29T01:40:28.386Z,19.7
2023-07-29T01:41:44.689Z,19.7
2023-07-29T01:43:00.979Z,19.7
2023-07-29T01:44:17.263Z,19.7
2023-07-29T01:45:33.556Z,19.7
2023-07-29T01:46:49.843Z,19.7
2023-07-29T01:48:06.145Z,19.7
2023-07-29T01:49:21.458Z,19.7
2023-07-29T01:50:37.749Z,19.7
2023-07-29T01:51:54.040Z,19.7
2023-07-29T01:53:10.346Z,19.7
2023-07-29T01:54:26.625Z,19.7
2023-07-29T01:55:42.912Z,19.7
2023-07-29T01:56:59.213Z,19.7
2023-07-29T01:58:15.507Z,19.7
2023-07-29T01:59:31.769Z,19.7
2023-07-29T02:00:48.098Z,19.7
2023-07-29T02:02:04.383Z,19.7
2023-07-29T02:03:20.689Z,19.7
2023-07-29T02:04:36.972Z,19.7
2023-07-29T02:05:52.282Z,19.7
2023-07-29T02:07:08.565Z,19.7
2023-07-29T02:08:24.872Z,19.7
2023-07-29T02:09:41.127Z,19.7
2023-07-29T02:10:57.455Z,19.6
2023-07-29T02:12:13.749Z,19.6
2023-07-29T02:13:30.042Z,19.6
2023-07-29T02:14:46.340Z,19.6
2023-07-29T02:16:02.628Z,19.6
2023-07-29T02:17:18.922Z,19.6
2023-07-29T02:18:35.199Z,19.6
2023-07-29T02:19:51.511Z,19.6
2023-07-29T02:21:07.804Z,19.6
2023-07-29T02:22:23.111Z,19.6
2023-07-29T02:23:39.407Z,19.6
2023-07-29T02:24:55.687Z,19.6
2023-07-29T02:26:11.986Z,19.6
2023-07-29T02:27:28.278Z,19.6
2023-07-29T02:28:44.578Z,19.6
2023-07-29T02:30:00.867Z,19.6
2023-07-29T02:31:17.153Z,19.6
2023-07-29T02:32:33.446Z,19.6
2023-07-29T02:33:49.735Z,19.6
2023-07-29T02:35:06.024Z,19.5
2023-07-29T02:36:22.329Z,19.5
2023-07-29T02:37:38.619Z,19.5
2023-07-29T02:38:53.923Z,19.5
2023-07-29T02:40:10.210Z,19.5
2023-07-29T02:41:26.513Z,19.5
2023-07-29T02:42:42.795Z,19.5
2023-07-29T02:43:59.101Z,19.5
2023-07-29T02:45:15.392Z,19.5
2023-07-29T02:46:31.688Z,19.5
2023-07-29T02:47:47.947Z,19.5
2023-07-29T02:49:04.261Z,19.5
2023-07-29T02:50:20.552Z,19.5
2023-07-29T02:51:36.797Z,19.4
2023-07-29T02:52:53.058Z,19.4
2023-07-29T02:54:09.289Z,19.4
2023-07-29T02:55:24.545Z,19.4
2023-07-29T02:56:40.772Z,19.4
2023-07-29T02:57:57.009Z,19.4
2023-07-29T02:59:13.263Z,19.3
2023-07-29T03:00:29.491Z,19.3
2023-07-29T03:01:45.733Z,19.3
2023-07-29T03:03:01.983Z,19.3
2023-07-29T03:04:18.220Z,19.3
2023-07-29T03:05:34.446Z,19.2
2023-07-29T03:06:50.687Z,19.2
2023-07-29T03:08:06.924Z,19.2
2023-07-29T03:09:23.166Z,19.2
2023-07-29T03:10:39.406Z,19.2
2023-07-29T03:11:54.665Z,19.1
2023-07-29T03:13:10.911Z,19.1
2023-07-29T03:14:27.142Z,19.1
2023-07-29T03:15:43.375Z,19.1
2023-07-29T03:16:59.628Z,19.1
2023-07-29T03:18:15.852Z,19.1
2023-07-29T03:19:32.103Z,19.1
2023-07-29T03:20:48.334Z,19
2023-07-29T03:22:04.582Z,19
2023-07-29T03:23:20.815Z,19
2023-07-29T03:24:37.053Z,19
2023-07-29T03:25:53.288Z,19
2023-07-29T03:27:09.537Z,19
2023-07-29T03:28:24.781Z,19
2023-07-29T03:29:41.015Z,18.9
2023-07-29T03:30:57.255Z,18.9
2023-07-29T03:32:13.507Z,18.9
2023-07-29T03:33:29.741Z,18.9
2023-07-29T03:34:45.972Z,18.9
2023-07-29T03:36:02.227Z,18.9
2023-07-29T03:37:18.460Z,18.9
2023-07-29T03:38:34.668Z,18.9
2023-07-29T03:39:50.945Z,18.9
2023-07-29T03:41:07.153Z,18.9
2023-07-29T03:42:23.417Z,18.9
2023-07-29T03:43:39.629Z,18.9
2023-07-29T03:44:54.917Z,18.9
2023-07-29T03:46:11.152Z,18.9
2023-07-29T03:47:27.388Z,18.9
2023-07-29T03:48:43.645Z,18.8
2023-07-29T03:49:59.872Z,18.8
2023-07-29T03:51:15.130Z,18.8
2023-07-29T03:52:31.387Z,18.8
2023-07-29T03:53:47.629Z,18.8
2023-07-29T03:55:03.869Z,18.8
2023-07-29T03:56:20.108Z,18.8
2023-07-29T03:57:36.334Z,18.8
2023-07-29T03:58:52.573Z,18.8
2023-07-29T04:00:08.812Z,18.8
2023-07-29T04:01:25.055Z,18.8
2023-07-29T04:02:41.299Z,18.8
2023-07-29T04:03:57.539Z,18.8
2023-07-29T04:05:13.908Z,18.8
2023-07-29T04:06:30.139Z,18.8
2023-07-29T04:07:45.402Z,18.8
2023-07-29T04:09:01.627Z,18.8
2023-07-29T04:10:17.882Z,18.8
2023-07-29T04:11:34.126Z,18.8
2023-07-29T04:12:50.363Z,18.8
2023-07-29T04:14:06.591Z,18.8
2023-07-29T04:15:22.835Z,18.8
2023-07-29T04:16:39.041Z,18.9
2023-07-29T04:17:55.316Z,18.8
2023-07-29T04:19:11.520Z,18.9
2023-07-29T04:20:27.793Z,18.9
2023-07-29T04:21:44.044Z,18.9
2023-07-29T04:23:00.269Z,18.9
2023-07-29T04:24:15.497Z,18.9
2023-07-29T04:25:31.769Z,18.9
2023-07-29T04:26:48.014Z,19
2023-07-29T04:28:04.251Z,18.9
2023-07-29T04:29:20.487Z,18.9
2023-07-29T04:30:36.725Z,19
2023-07-29T04:31:52.956Z,19
2023-07-29T04:33:09.197Z,19
2023-07-29T04:34:25.416Z,19
2023-07-29T04:35:41.678Z,19
2023-07-29T04:36:57.911Z,19.1
2023-07-29T04:38:14.159Z,19.1
2023-07-29T04:39:30.390Z,19.1
2023-07-29T04:40:45.648Z,19.1
2023-07-29T04:42:01.896Z,19.1
2023-07-29T04:43:18.135Z,19.2
2023-07-29T04:44:34.360Z,19.2
2023-07-29T04:45:50.618Z,19.2
2023-07-29T04:47:06.851Z,19.2
2023-07-29T04:48:23.087Z,19.3
2023-07-29T04:49:39.320Z,19.3
2023-07-29T04:50:55.574Z,19.3
2023-07-29T04:53:28.043Z,19.4
2023-07-29T04:54:44.293Z,19.4
2023-07-29T04:56:00.529Z,19.4
2023-07-29T04:57:15.789Z,19.4
2023-07-29T04:58:32.027Z,19.4
2023-07-29T04:59:48.261Z,19.5
2023-07-29T05:01:04.506Z,19.5
2023-07-29T05:02:20.730Z,19.5
2023-07-29T05:03:36.974Z,19.6
2023-07-29T05:04:53.212Z,19.6
2023-07-29T05:06:09.458Z,19.6
2023-07-29T05:07:25.697Z,19.6
2023-07-29T05:08:41.927Z,19.7
2023-07-29T05:09:58.146Z,19.7
2023-07-29T05:11:14.404Z,19.7
2023-07-29T05:12:30.664Z,19.8
2023-07-29T05:13:45.906Z,19.8
2023-07-29T05:15:02.145Z,19.8
2023-07-29T05:16:18.389Z,19.9
2023-07-29T05:17:34.618Z,19.9
2023-07-29T05:18:50.857Z,19.9
2023-07-29T05:20:07.101Z,19.9
2023-07-29T05:21:23.346Z,20
2023-07-29T05:22:39.573Z,20
2023-07-29T05:23:55.829Z,20
2023-07-29T05:25:12.059Z,20.1
2023-07-29T05:26:28.290Z,20.1
2023-07-29T05:27:44.535Z,20.1
2023-07-29T05:29:00.774Z,20.2
2023-07-29T05:30:16.042Z,20.2
2023-07-29T05:31:32.272Z,20.3
2023-07-29T05:32:48.505Z,20.3
2023-07-29T05:34:04.742Z,20.3
2023-07-29T05:35:20.995Z,20.3
2023-07-29T05:36:37.230Z,20.4
2023-07-29T05:37:53.469Z,20.4
2023-07-29T05:39:09.699Z,20.5
2023-07-29T05:40:25.937Z,20.5
2023-07-29T05:41:42.176Z,20.6
2023-07-29T05:42:58.421Z,20.6
2023-07-29T05:44:14.655Z,20.6
2023-07-29T05:45:30.892Z,20.6
2023-07-29T05:46:46.160Z,20.6
2023-07-29T05:48:02.381Z,20.6
2023-07-29T05:49:18.623Z,20.7
2023-07-29T05:50:34.872Z,20.7
2023-07-29T05:51:51.106Z,20.8
2023-07-29T05:53:07.345Z,20.8
2023-07-29T05:54:23.582Z,20.8
2023-07-29T05:55:39.815Z,20.8
2023-07-29T05:56:56.066Z,20.8
2023-07-29T05:58:12.308Z,20.9
2023-07-29T05:59:28.549Z,20.9
2023-07-29T06:00:44.780Z,21
2023-07-29T06:02:01.026Z,21
2023-07-29T06:03:16.284Z,21
2023-07-29T06:04:32.525Z,21.1
2023-07-29T06:05:48.759Z,21.1
2023-07-29T06:07:04.990Z,21.2
2023-07-29T06:08:21.209Z,21.2
2023-07-29T06:09:37.464Z,21.2
2023-07-29T06:10:53.721Z,21.2
2023-07-29T06:12:09.942Z,21.3
2023-07-29T06:13:26.197Z,21.3
2023-07-29T06:14:42.437Z,21.3
2023-07-29T06:15:58.663Z,21.3
2023-07-29T06:17:14.920Z,21.4
2023-07-29T06:18:31.144Z,21.4
2023-07-29T06:19:46.405Z,21.4
2023-07-29T06:21:02.649Z,21.5
2023-07-29T06:22:18.882Z,21.5
2023-07-29T06:23:35.130Z,21.6
2023-07-29T06:24:51.364Z,21.6
2023-07-29T06:26:07.602Z,21.7
2023-07-29T06:27:23.840Z,21.7
2023-07-29T06:28:40.074Z,21.7
2023-07-29T06:29:56.313Z,21.7
2023-07-29T06:31:12.519Z,21.7
2023-07-29T06:32:28.795Z,21.7
2023-07-29T06:33:45.025Z,21.8
2023-07-29T06:35:01.279Z,21.8
2023-07-29T06:36:16.535Z,21.9
2023-07-29T06:37:32.775Z,21.9
2023-07-29T06:38:49.017Z,21.9
2023-07-29T06:40:05.248Z,22
2023-07-29T06:41:21.481Z,22
2023-07-29T06:42:37.730Z,22
2023-07-29T06:43:53.935Z,22.1
2023-07-29T06:45:10.172Z,22.1
2023-07-29T06:46:26.457Z,22.1
2023-07-29T06:47:42.679Z,22.1
2023-07-29T06:48:58.933Z,22.1
2023-07-29T06:50:15.155Z,22.1
2023-07-29T06:51:31.371Z,22.2
2023-07-29T06:52:46.667Z,22.2
2023-07-29T06:54:02.893Z,22.3
2023-07-29T06:55:19.148Z,22.3
2023-07-29T06:56:35.383Z,22.4
2023-07-29T06:57:51.617Z,22.4
2023-07-29T06:59:07.854Z,22.5
2023-07-29T07:00:24.089Z,22.5
2023-07-29T07:01:40.335Z,22.6
2023-07-29T07:02:56.586Z,22.6
2023-07-29T07:04:12.774Z,22.6
2023-07-29T07:05:29.046Z,22.6
2023-07-29T07:06:45.282Z,22.6
2023-07-29T07:08:01.532Z,22.6
2023-07-29T07:09:16.749Z,22.7
2023-07-29T07:10:33.024Z,22.7
2023-07-29T07:11:49.279Z,22.8
2023-07-29T07:13:05.500Z,22.8
2023-07-29T07:14:21.741Z,22.9
2023-07-29T07:15:37.975Z,23
2023-07-29T07:16:54.226Z,23.1
2023-07-29T07:18:10.461Z,23.2
2023-07-29T07:19:26.712Z,23.3
2023-07-29T07:20:42.951Z,23.3
2023-07-29T07:21:59.139Z,23.4
2023-07-29T07:23:15.412Z,23.5
2023-07-29T07:24:31.660Z,23.5
2023-07-29T07:25:46.918Z,23.6
2023-07-29T07:27:03.156Z,23.6
2023-07-29T07:28:19.386Z,23.6
2023-07-29T07:29:35.622Z,23.7
2023-07-29T07:30:51.870Z,23.7
2023-07-29T07:32:08.105Z,23.8
2023-07-29T07:33:24.351Z,23.9
2023-07-29T07:34:40.581Z,23.9
2023-07-29T07:35:56.839Z,24
2023-07-29T07:37:13.070Z,24.1
2023-07-29T07:38:29.318Z,24.1
2023-07-29T07:39:45.546Z,24.2
2023-07-29T07:41:01.794Z,24.3
2023-07-29T07:42:17.029Z,24.4
2023-07-29T07:43:33.280Z,24.4
2023-07-29T07:44:49.522Z,24.5
2023-07-29T07:46:05.766Z,24.5
2023-07-29T07:47:21.968Z,24.5
2023-07-29T07:48:38.237Z,24.5
2023-07-29T07:49:54.485Z,24.6
2023-07-29T07:51:10.724Z,24.7
2023-07-29T07:52:26.960Z,24.7
2023-07-29T07:53:43.185Z,24.6
2023-07-29T07:54:59.387Z,24.7
2023-07-29T07:56:15.680Z,24.8
2023-07-29T07:57:31.920Z,24.8
2023-07-29T07:58:47.173Z,24.9
2023-07-29T08:00:03.417Z,24.9
2023-07-29T08:01:19.623Z,25
2023-07-29T08:02:35.844Z,25.1
2023-07-29T08:03:52.133Z,25
2023-07-29T08:05:08.376Z,25
2023-07-29T08:06:23.629Z,25.1
2023-07-29T08:07:39.867Z,25.1
2023-07-29T08:08:56.100Z,24.9
2023-07-29T08:10:12.357Z,24.9
2023-07-29T08:11:28.595Z,24.8
2023-07-29T08:12:44.837Z,24.9
2023-07-29T08:14:01.060Z,24.9
2023-07-29T08:15:17.314Z,25
2023-07-29T08:16:33.557Z,25
2023-07-29T08:17:49.797Z,25.1
2023-07-29T08:19:06.024Z,25.2
2023-07-29T08:20:22.223Z,25.2
2023-07-29T08:21:38.510Z,25.3
2023-07-29T08:22:53.753Z,25.3
2023-07-29T08:24:09.995Z,25.3
2023-07-29T08:25:26.233Z,25.3
2023-07-29T08:26:42.473Z,25.3
2023-07-29T08:27:58.716Z,25.3
2023-07-29T08:29:14.968Z,25.4
2023-07-29T08:30:31.196Z,25.4
2023-07-29T08:31:47.436Z,25.4
2023-07-29T08:33:03.677Z,25.4
2023-07-29T08:34:19.913Z,25.4
2023-07-29T08:35:36.161Z,25.4
2023-07-29T08:36:52.389Z,25.3
2023-07-29T08:38:08.626Z,25.4
2023-07-29T08:39:23.897Z,25.3
2023-07-29T08:40:40.135Z,25.3
2023-07-29T08:41:56.383Z,25.2
2023-07-29T08:43:12.604Z,25.1
2023-07-29T08:44:28.852Z,25.1
2023-07-29T08:45:45.042Z,25
2023-07-29T08:47:01.334Z,25
2023-07-29T08:48:17.580Z,24.9
2023-07-29T08:49:33.806Z,24.9
2023-07-29T08:50:50.002Z,24.9
2023-07-29T08:52:06.278Z,24.9
2023-07-29T08:53:22.521Z,24.9
2023-07-29T08:54:38.722Z,25
2023-07-29T08:55:54.021Z,25
2023-07-29T08:57:10.258Z,25.1
2023-07-29T08:58:26.497Z,25.2
2023-07-29T08:59:42.733Z,25.3
2023-07-29T09:00:58.930Z,25.4
2023-07-29T09:02:15.209Z,25.5
2023-07-29T09:03:31.461Z,25.5
2023-07-29T09:04:47.699Z,25.5
2023-07-29T09:06:03.943Z,25.5
2023-07-29T09:07:20.170Z,25.5
2023-07-29T09:08:36.369Z,25.6
2023-07-29T09:09:52.643Z,25.7
2023-07-29T09:11:08.887Z,25.7
2023-07-29T09:12:24.149Z,25.7
2023-07-29T09:13:40.397Z,25.8
2023-07-29T09:14:56.626Z,25.8
2023-07-29T09:16:12.823Z,25.8
2023-07-29T09:17:29.098Z,25.8
2023-07-29T09:18:45.340Z,25.8
2023-07-29T09:20:01.589Z,25.8
2023-07-29T09:21:17.816Z,25.8
2023-07-29T09:22:34.050Z,25.9
2023-07-29T09:23:50.303Z,25.9
2023-07-29T09:25:06.540Z,26
2023-07-29T09:26:22.729Z,26
2023-07-29T09:27:39.018Z,26.2
2023-07-29T09:28:54.263Z,26.1
2023-07-29T09:30:10.511Z,26.1
2023-07-29T09:31:26.751Z,26
2023-07-29T09:33:59.220Z,26
2023-07-29T09:35:15.465Z,26
2023-07-29T09:36:31.718Z,26
2023-07-29T09:37:47.953Z,25.9
2023-07-29T09:39:04.147Z,25.9
2023-07-29T09:40:20.420Z,25.8
2023-07-29T09:41:36.664Z,25.8
2023-07-29T09:42:52.908Z,25.8
2023-07-29T09:44:09.144Z,25.8
2023-07-29T09:45:24.393Z,25.9
2023-07-29T09:46:40.638Z,26
2023-07-29T09:47:56.884Z,26
2023-07-29T09:49:13.127Z,26
2023-07-29T09:50:29.353Z,25.9
2023-07-29T09:51:45.601Z,25.8
2023-07-29T09:53:01.824Z,25.8
2023-07-29T09:54:18.077Z,25.8
2023-07-29T09:55:34.266Z,25.8
2023-07-29T09:56:50.551Z,25.8
2023-07-29T09:58:06.790Z,25.8
2023-07-29T09:59:23.024Z,25.9
2023-07-29T10:00:39.270Z,25.9
2023-07-29T10:01:54.532Z,25.7
2023-07-29T10:03:10.768Z,25.7
2023-07-29T10:04:27.015Z,25.6
2023-07-29T10:05:43.249Z,25.5
2023-07-29T10:06:59.475Z,25.5
2023-07-29T10:08:15.730Z,25.4
2023-07-29T10:09:31.910Z,25.3
2023-07-29T10:10:48.205Z,25.3
2023-07-29T10:12:04.442Z,25.3
2023-07-29T10:13:20.680Z,25.3
2023-07-29T10:14:36.922Z,25.4
2023-07-29T10:15:53.157Z,25.4
2023-07-29T10:17:09.402Z,25.5
2023-07-29T10:18:24.656Z,25.5
2023-07-29T10:19:40.902Z,25.6
2023-07-29T10:20:57.132Z,25.7
2023-07-29T10:22:13.365Z,25.7
2023-07-29T10:23:29.610Z,25.7
2023-07-29T10:24:45.838Z,25.7
2023-07-29T10:26:02.095Z,25.7
2023-07-29T10:27:18.317Z,25.8
2023-07-29T10:28:34.572Z,25.8
2023-07-29T10:29:50.796Z,25.8
2023-07-29T10:31:07.050Z,25.9
2023-07-29T10:32:23.292Z,26
2023-07-29T10:33:39.528Z,26
2023-07-29T10:34:54.776Z,26.1
2023-07-29T10:36:11.010Z,26.1
2023-07-29T10:37:27.264Z,26.2
2023-07-29T10:38:43.497Z,26.2
2023-07-29T10:39:59.743Z,26.2
2023-07-29T10:41:15.970Z,26.1
2023-07-29T10:42:32.211Z,26
2023-07-29T10:43:48.457Z,25.9
2023-07-29T10:45:04.697Z,25.8
2023-07-29T10:46:20.941Z,25.7
2023-07-29T10:47:37.175Z,25.6
2023-07-29T10:48:53.416Z,25.6
2023-07-29T10:50:09.638Z,25.6
2023-07-29T10:51:24.915Z,25.7
2023-07-29T10:52:41.150Z,25.7
2023-07-29T10:53:57.380Z,25.7
2023-07-29T10:55:13.612Z,25.7
2023-07-29T10:56:29.849Z,25.7
2023-07-29T10:57:46.044Z,25.7
2023-07-29T10:59:02.332Z,25.8
2023-07-29T11:00:18.570Z,25.8
2023-07-29T11:01:34.818Z,25.8
2023-07-29T11:02:51.047Z,25.9
2023-07-29T11:04:07.298Z,26.1
2023-07-29T11:05:23.524Z,26.1
2023-07-29T11:06:39.764Z,26.2
2023-07-29T11:07:55.032Z,26.3
2023-07-29T11:09:11.268Z,26.3
2023-07-29T11:10:27.496Z,26.2
2023-07-29T11:11:43.748Z,26.2
2023-07-29T11:12:59.992Z,26.3
2023-07-29T11:14:16.174Z,26.3
2023-07-29T11:15:32.457Z,26.3
2023-07-29T11:16:48.701Z,26.3
2023-07-29T11:18:04.945Z,26.3
2023-07-29T11:19:21.170Z,26.3
2023-07-29T11:20:37.426Z,26.2
2023-07-29T11:23:09.850Z,26.2
2023-07-29T11:24:25.157Z,26.1
2023-07-29T11:25:41.340Z,26.1
2023-07-29T11:26:57.622Z,26
2023-07-29T11:28:13.862Z,25.9
2023-07-29T11:29:30.106Z,26
2023-07-29T11:30:46.345Z,26
2023-07-29T11:32:02.593Z,26.2
2023-07-29T11:33:18.777Z,26.2
2023-07-29T11:34:35.070Z,26.2
2023-07-29T11:35:51.309Z,26.3
2023-07-29T11:37:07.551Z,26.3
2023-07-29T11:38:23.775Z,26.3
2023-07-29T11:39:40.020Z,26.3
2023-07-29T11:40:55.278Z,26.3
2023-07-29T11:43:27.776Z,26.1
2023-07-29T11:44:43.993Z,26
2023-07-29T11:46:00.225Z,26.1
2023-07-29T11:47:16.472Z,26.2
2023-07-29T11:48:32.714Z,26.3
2023-07-29T11:51:05.139Z,26.4
2023-07-29T11:52:21.436Z,26.3
2023-07-29T11:53:37.660Z,26.4
2023-07-29T11:54:53.900Z,26.4
2023-07-29T11:56:10.153Z,26.5
2023-07-29T11:57:25.396Z,26.6
2023-07-29T11:58:41.643Z,26.7
2023-07-29T11:59:57.880Z,26.7
2023-07-29T12:01:14.122Z,26.7
2023-07-29T12:02:30.356Z,26.7
2023-07-29T12:03:46.545Z,26.7
2023-07-29T12:05:02.844Z,26.7
2023-07-29T12:06:19.087Z,26.7
2023-07-29T12:07:35.306Z,26.7
2023-07-29T12:08:51.551Z,26.7
2023-07-29T12:10:07.801Z,26.6
2023-07-29T12:11:24.046Z,26.6
2023-07-29T12:12:40.272Z,26.5
2023-07-29T12:13:55.531Z,26.6
2023-07-29T12:15:11.769Z,26.5
2023-07-29T12:16:27.958Z,26.5
2023-07-29T12:17:44.252Z,26.4
2023-07-29T12:19:00.493Z,26.4
2023-07-29T12:20:16.722Z,26.4
2023-07-29T12:21:31.995Z,26.3
2023-07-29T12:22:48.226Z,26.4
2023-07-29T12:24:04.480Z,26.4
2023-07-29T12:25:20.719Z,26.4
2023-07-29T12:26:36.959Z,26.5
2023-07-29T12:27:53.179Z,26.5
2023-07-29T12:29:09.424Z,26.5
2023-07-29T12:30:25.671Z,26.6
2023-07-29T12:31:41.916Z,26.5
2023-07-29T12:32:58.151Z,26.5
2023-07-29T12:34:14.384Z,26.4
2023-07-29T12:35:30.634Z,26.5
2023-07-29T12:36:46.869Z,26.4
2023-07-29T12:38:02.117Z,26.4
2023-07-29T12:39:18.352Z,26.5
2023-07-29T12:40:34.606Z,26.5
2023-07-29T12:41:50.832Z,26.5
2023-07-29T12:43:07.070Z,26.4
2023-07-29T12:44:23.326Z,26.3
2023-07-29T12:45:39.563Z,26.4
2023-07-29T12:46:55.790Z,26.4
2023-07-29T12:49:28.278Z,26.7
2023-07-29T12:50:44.509Z,26.9
2023-07-29T12:52:00.746Z,26.9
2023-07-29T12:53:17.004Z,27
2023-07-29T12:54:32.246Z,27.1
2023-07-29T12:55:48.490Z,27.1
2023-07-29T12:57:04.740Z,27.2
2023-07-29T12:58:20.972Z,27.1
2023-07-29T12:59:37.212Z,27.2
2023-07-29T13:00:53.441Z,27.2
2023-07-29T13:02:09.696Z,27.2
2023-07-29T13:03:25.938Z,27.2
2023-07-29T13:04:42.000Z,27.2
2023-07-29T13:05:58.401Z,27
2023-07-29T13:07:14.643Z,27
2023-07-29T13:08:30.895Z,27
2023-07-29T13:09:47.126Z,27
2023-07-29T13:11:02.381Z,27
2023-07-29T13:12:18.611Z,26.9
2023-07-29T13:13:34.858Z,26.8
2023-07-29T13:14:51.105Z,26.9
2023-07-29T13:17:23.575Z,27.2
2023-07-29T13:18:39.808Z,27.3
2023-07-29T13:19:56.062Z,27.4
2023-07-29T13:21:12.289Z,27.3
2023-07-29T13:22:28.529Z,27.2
2023-07-29T13:23:44.776Z,27.2
2023-07-29T13:25:01.005Z,27
2023-07-29T13:26:17.253Z,27.1
2023-07-29T13:27:33.616Z,27.2
2023-07-29T13:28:49.855Z,27.2
2023-07-29T13:30:06.087Z,27.3
2023-07-29T13:31:22.334Z,27.4
2023-07-29T13:32:38.569Z,27.3
2023-07-29T13:33:54.817Z,27.4
2023-07-29T13:35:11.057Z,27.4
2023-07-29T13:36:27.284Z,27.4
2023-07-29T13:37:43.544Z,27.4
2023-07-29T13:38:59.773Z,27.4
2023-07-29T13:40:15.957Z,27.5
2023-07-29T13:41:32.244Z,27.6
2023-07-29T13:42:48.491Z,27.5
2023-07-29T13:44:03.744Z,27.6
2023-07-29T13:45:19.982Z,27.5
2023-07-29T13:46:36.218Z,27.6
2023-07-29T13:47:52.471Z,27.5
2023-07-29T13:49:08.710Z,27.6
2023-07-29T13:50:24.954Z,27.6
2023-07-29T13:51:41.190Z,27.7
2023-07-29T13:52:57.414Z,27.8
2023-07-29T13:54:13.663Z,28
2023-07-29T13:55:29.901Z,28
2023-07-29T13:56:46.144Z,28
2023-07-29T13:58:02.380Z,28.1
2023-07-29T13:59:18.632Z,28.1
2023-07-29T14:00:33.880Z,28.1
2023-07-29T14:01:50.110Z,28.1
2023-07-29T14:03:06.362Z,28
2023-07-29T14:04:22.536Z,27.8
2023-07-29T14:05:38.834Z,27.8
2023-07-29T14:06:55.076Z,27.9
2023-07-29T14:08:11.316Z,27.9
2023-07-29T14:09:27.543Z,28
2023-07-29T14:10:43.791Z,28
2023-07-29T14:11:59.972Z,27.9
2023-07-29T14:13:16.278Z,27.8
2023-07-29T14:14:32.506Z,27.9
2023-07-29T14:15:48.757Z,27.9
2023-07-29T14:17:03.997Z,28
2023-07-29T14:18:20.252Z,28.1
2023-07-29T14:19:36.486Z,28.3
2023-07-29T14:20:52.731Z,28.3
2023-07-29T14:22:08.971Z,28.2
2023-07-29T14:23:25.205Z,28
2023-07-29T14:24:41.448Z,27.9
2023-07-29T14:25:57.679Z,27.9
2023-07-29T14:27:13.913Z,27.9
2023-07-29T14:28:30.155Z,28.1
2023-07-29T14:29:46.391Z,28.3
2023-07-29T14:31:02.635Z,28.4
2023-07-29T14:32:18.871Z,28.4
2023-07-29T14:33:34.127Z,28.1
2023-07-29T14:34:50.377Z,27.9
2023-07-29T14:36:06.609Z,27.8
2023-07-29T14:37:22.852Z,27.8
2023-07-29T14:38:39.097Z,27.7
2023-07-29T14:39:55.326Z,27.9
2023-07-29T14:41:11.569Z,28
2023-07-29T14:42:27.815Z,28
2023-07-29T14:43:44.051Z,28
2023-07-29T14:45:00.281Z,27.9
2023-07-29T14:46:16.528Z,27.9
2023-07-29T14:47:32.770Z,27.8
2023-07-29T14:48:49.010Z,27.8
2023-07-29T14:50:04.261Z,27.7
2023-07-29T14:51:20.507Z,27.7
2023-07-29T14:52:36.753Z,27.6
2023-07-29T14:53:52.988Z,27.3
2023-07-29T14:55:09.222Z,27.3
2023-07-29T14:57:41.698Z,27.2
2023-07-29T14:58:57.937Z,27
2023-07-29T15:00:14.174Z,26.9
2023-07-29T15:01:30.420Z,26.8
2023-07-29T15:02:46.655Z,26.7
2023-07-29T15:04:02.898Z,26.6
2023-07-29T15:05:19.139Z,25.8
2023-07-29T15:06:34.329Z,25.3
2023-07-29T15:07:50.627Z,25.1
2023-07-29T15:09:06.880Z,24.8
2023-07-29T15:10:23.115Z,24.6
2023-07-29T15:11:39.349Z,24.2
2023-07-29T15:12:55.587Z,23.8
2023-07-29T15:14:11.841Z,23.6
2023-07-29T15:15:28.069Z,23.5
2023-07-29T15:16:44.312Z,23.4
2023-07-29T15:18:00.545Z,23.3
2023-07-29T15:19:16.792Z,23.3
2023-07-29T15:20:33.023Z,23.3
2023-07-29T15:21:49.279Z,23.2
2023-07-29T15:23:04.528Z,23.1
2023-07-29T15:24:20.767Z,23.1
2023-07-29T15:25:37.007Z,23.1
2023-07-29T15:26:53.188Z,22.9
2023-07-29T15:28:09.482Z,22.8
2023-07-29T15:29:25.724Z,22.7
2023-07-29T15:30:41.968Z,22.6
2023-07-29T15:31:58.190Z,22.5
2023-07-29T15:33:14.444Z,22.3
2023-07-29T15:34:30.684Z,22.1
2023-07-29T15:35:46.914Z,21.9
2023-07-29T15:37:03.159Z,21.8
2023-07-29T15:38:19.403Z,21.7
2023-07-29T15:39:35.761Z,21.5
2023-07-29T15:40:52.001Z,21.4
2023-07-29T15:42:08.234Z,21.4
2023-07-29T15:43:24.469Z,21.3
2023-07-29T15:44:40.716Z,21.3
2023-07-29T15:45:56.946Z,21.2
2023-07-29T15:47:13.189Z,21.2
2023-07-29T15:48:29.435Z,21.1
2023-07-29T15:49:45.669Z,21.1
2023-07-29T15:51:01.903Z,21
2023-07-29T15:52:18.143Z,20.9
2023-07-29T15:53:34.385Z,20.8
2023-07-29T15:54:50.626Z,20.8
2023-07-29T15:56:05.883Z,20.8
2023-07-29T15:57:22.133Z,20.8
2023-07-29T15:58:38.362Z,20.9
2023-07-29T15:59:54.593Z,20.9
2023-07-29T16:01:10.844Z,21
2023-07-29T16:02:27.073Z,21
2023-07-29T16:03:43.322Z,21.1
2023-07-29T16:04:59.558Z,21.3
2023-07-29T16:06:15.807Z,21.5
2023-07-29T16:07:32.042Z,21.7
2023-07-29T16:08:48.274Z,22.3
2023-07-29T16:10:04.510Z,22.7
2023-07-29T16:11:20.758Z,22.8
2023-07-29T16:12:36.016Z,22.9
2023-07-29T16:13:52.240Z,22.9
2023-07-29T16:15:08.478Z,23
2023-07-29T16:16:24.734Z,22.8
2023-07-29T16:17:40.969Z,22.8
2023-07-29T16:18:57.201Z,22.7
2023-07-29T16:20:13.443Z,22.6
2023-07-29T16:21:29.692Z,22.6
2023-07-29T16:22:45.918Z,22.5
2023-07-29T16:24:02.165Z,22.6
2023-07-29T16:25:18.404Z,22.8
2023-07-29T16:26:34.638Z,23.1
2023-07-29T16:27:50.875Z,23.7
2023-07-29T16:29:06.144Z,23.9
2023-07-29T16:30:22.307Z,23.9
2023-07-29T16:31:38.613Z,23.8
2023-07-29T16:32:54.857Z,23.8
2023-07-29T16:34:11.097Z,23.8
2023-07-29T16:35:27.345Z,24.3
2023-07-29T16:36:42.618Z,25.9
2023-07-29T16:37:58.856Z,26.1
2023-07-29T16:40:31.316Z,27.4
2023-07-29T16:41:47.558Z,28.4
2023-07-29T16:43:03.797Z,29.2
2023-07-29T16:44:20.049Z,29.8
2023-07-29T16:45:36.284Z,30.4
2023-07-29T16:46:52.525Z,30.8
2023-07-29T16:48:08.754Z,31
2023-07-29T16:49:25.008Z,30.7
2023-07-29T16:50:41.243Z,30.8
2023-07-29T16:51:57.471Z,30.9
2023-07-29T16:53:12.749Z,30.8
2023-07-29T16:54:28.968Z,30.5
2023-07-29T16:55:45.213Z,29.6
2023-07-29T16:57:01.462Z,29.2
2023-07-29T16:58:17.694Z,28
2023-07-29T16:59:33.938Z,26.8
2023-07-29T17:00:50.176Z,26.1
2023-07-29T17:02:06.421Z,25.6
2023-07-29T17:03:22.648Z,25.1
2023-07-29T17:04:38.903Z,24.7
2023-07-29T17:05:55.081Z,24.4
2023-07-29T17:07:11.379Z,24.2
2023-07-29T17:08:27.618Z,24
2023-07-29T17:09:42.866Z,23.9
2023-07-29T17:10:59.108Z,24.7